Terminal Aerodrome Forecast
Issued by NWS

Home | Current Version | Previous Version | Text Only | Print | Product List | Glossary Off
Versions: 1 2 3 4 5 6 7 8 9 10 11 12 13 14 15 16 17 18

000
FTUS45 KGGW 191510 AAC
TAFOLF
TAF AMD
KOLF 191510Z 1915/2012 07012KT 1SM BR OVC002
      TEMPO 1915/1918 1/2SM FG OVC001
     FM191800 08009KT P6SM SCT010 BKN100
     FM192000 07006KT P6SM SCT035 BKN090
     FM200400 VRB03KT P6SM OVC070
     FM200700 24005KT P6SM VCSH OVC040=

USA.gov is the U.S. government's official web portal to all federal, state and local government web resources and services.